»·PEaware :: N2Q KSEE-KPSP

N2Q :: KSEE-KPSP

FLIGHT INFORMATION

Flight Status: Arrived
Operator: Privately registered:
United States
More flights under this callsign
Pilot: Anonymous 13363 (13363)
Aircraft: Unknown
(KODI)
More flights by this aircraft type
Origin: KSEE Gillespie
United States
Destination: KPSP Palm Springs Intl
United States
More flights between these airports :: More routes between these airports
Route: +MZB1 MZB JLI V208 TRM
File this flight plan on PilotEdge
Remarks:
Altitude:
(Current/Filed)
15,000ft
Speed:
(Current/Filed)
260kts
Departed: 19-Dec-17 07:50 PM
Arrived: 19-Dec-17 08:28 PM
Distance/Time
Traveled:
64nm/0:37
Distance/Time
To Go:
Arrived

Flight Plot

Page will automatically refresh every two minutes.

Flight plan parsing failed; only flown route is shown


Map Options




Map Legend


Flown Route
Filed Route
Departure Airport
Arrival Airport
Navaid (VOR, NDB)
Fix

Horizontal Profiles

Position Reports

Time Latitude Longitude Heading Altitude Ground
Speed
19-Dec-17 19:31 32.822032 -116.973386 269 393ft 0kts
19-Dec-17 19:32 32.822032 -116.973386 269 393ft 0kts
19-Dec-17 19:33 32.822032 -116.973386 269 393ft 0kts
19-Dec-17 19:34 32.822032 -116.973386 269 393ft 0kts
19-Dec-17 19:35 32.822032 -116.973386 269 393ft 0kts
19-Dec-17 19:36 32.822032 -116.973386 269 393ft 0kts
19-Dec-17 19:37 32.822032 -116.973385 269 392ft 0kts
19-Dec-17 19:38 32.822032 -116.973381 269 393ft 0kts
19-Dec-17 19:39 32.822032 -116.973381 269 393ft 0kts
19-Dec-17 19:40 32.822032 -116.973385 269 392ft 0kts
19-Dec-17 19:41 32.822032 -116.973386 269 392ft 0kts
19-Dec-17 19:42 32.822032 -116.973386 269 392ft 0kts
19-Dec-17 19:43 32.822032 -116.973386 269 392ft 0kts
19-Dec-17 19:44 32.822032 -116.973386 269 392ft 0kts
19-Dec-17 19:45 32.822032 -116.973386 269 392ft 0kts
19-Dec-17 19:46 32.822032 -116.973386 269 392ft 0kts
19-Dec-17 19:47 32.822032 -116.973386 269 392ft 0kts
19-Dec-17 19:48 32.822032 -116.973386 269 392ft 0kts
19-Dec-17 19:49 32.822032 -116.973386 269 392ft 0kts
19-Dec-17 19:50 32.821858 -116.973437 177 392ft 6kts
19-Dec-17 19:51 32.823781 -116.972954 0 392ft 23kts
19-Dec-17 19:52 32.825960 -116.971575 102 392ft 15kts
19-Dec-17 19:53 32.824760 -116.964990 95 392ft 14kts
19-Dec-17 19:54 32.825641 -116.964357 8 392ft 0kts
19-Dec-17 19:55 32.826373 -116.964726 320 392ft 11kts
19-Dec-17 19:56 32.831280 -116.985615 294 984ft 101kts
19-Dec-17 19:57 32.829389 -116.974450 178 2235ft 128kts
19-Dec-17 19:58 32.796288 -116.969785 146 3875ft 129kts
19-Dec-17 19:59 32.799377 -116.934493 36 5537ft 116kts
19-Dec-17 20:00 32.823405 -116.911926 37 7242ft 118kts
19-Dec-17 20:01 32.849146 -116.886061 32 8847ft 126kts
19-Dec-17 20:02 32.875822 -116.858928 30 10426ft 128kts
19-Dec-17 20:03 32.903029 -116.831152 30 11993ft 134kts
19-Dec-17 20:04 32.931763 -116.801630 30 13545ft 141kts
19-Dec-17 20:05 32.961428 -116.771082 30 15013ft 147kts
19-Dec-17 20:06 32.998415 -116.732960 33 15029ft 186kts
19-Dec-17 20:07 33.037400 -116.692533 33 15028ft 185kts
19-Dec-17 20:08 33.075634 -116.652989 33 15028ft 185kts
19-Dec-17 20:09 33.107680 -116.619828 33 15030ft 185kts
19-Dec-17 20:10 33.140816 -116.585747 28 15031ft 183kts
19-Dec-17 20:11 33.181592 -116.550221 28 15030ft 183kts
19-Dec-17 20:12 33.222557 -116.514638 28 15005ft 184kts
19-Dec-17 20:13 33.263813 -116.478762 28 15003ft 183kts
19-Dec-17 20:14 33.303820 -116.443942 28 15003ft 183kts
19-Dec-17 20:15 33.338577 -116.413657 28 15003ft 183kts
19-Dec-17 20:16 33.379730 -116.377776 28 15003ft 183kts
19-Dec-17 20:17 33.420649 -116.342037 28 14999ft 183kts
19-Dec-17 20:18 33.461364 -116.306427 28 14999ft 183kts
19-Dec-17 20:19 33.502078 -116.270778 28 14999ft 183kts
19-Dec-17 20:20 33.540351 -116.284597 320 14999ft 158kts
19-Dec-17 20:21 33.577418 -116.313558 322 14681ft 158kts
19-Dec-17 20:22 33.613488 -116.341142 323 14166ft 153kts
19-Dec-17 20:23 33.648904 -116.368169 322 13656ft 151kts
19-Dec-17 20:24 33.683845 -116.394912 322 12821ft 147kts
19-Dec-17 20:25 33.717728 -116.420862 323 11657ft 146kts
19-Dec-17 20:26 33.744830 -116.398100 71 10125ft 164kts
19-Dec-17 20:27 33.754304 -116.355290 45 8285ft 126kts
19-Dec-17 20:28 33.779090 -116.366312 263 6780ft 131kts
19-Dec-17 20:29 33.751529 -116.392415 211 5215ft 135kts
19-Dec-17 20:30 33.768842 -116.408214 323 3713ft 119kts
19-Dec-17 20:31 33.774399 -116.445290 285 2560ft 112kts
19-Dec-17 20:32 33.794539 -116.472203 326 1329ft 111kts
19-Dec-17 20:33 33.814197 -116.490922 323 780ft 76kts
19-Dec-17 20:34 33.828661 -116.503939 329 482ft 23kts
19-Dec-17 20:35 33.830070 -116.504259 67 481ft 0kts
19-Dec-17 20:36 33.828009 -116.502278 143 481ft 18kts
19-Dec-17 20:37 33.824361 -116.498780 142 481ft 3kts
19-Dec-17 20:38 33.824322 -116.498416 55 481ft 0kts
19-Dec-17 20:39 33.824322 -116.498417 55 481ft 0kts
19-Dec-17 20:40 33.824322 -116.498417 55 481ft 0kts
19-Dec-17 20:41 33.824322 -116.498417 55 481ft 0kts
19-Dec-17 20:42 33.824322 -116.498417 55 481ft 0kts
19-Dec-17 20:43 33.824322 -116.498417 55 481ft 0kts
19-Dec-17 20:44 33.824322 -116.498417 55 481ft 0kts
19-Dec-17 20:45 33.824322 -116.498417 55 481ft 0kts
19-Dec-17 20:46 33.824322 -116.498417 55 481ft 0kts

Navigation Log

Ident Type
Flight plan parsing failed, navigation log unavailable